sensor_id;sensor_type;location;lat;lon;timestamp;P1;durP1;ratioP1;P2;durP2;ratioP2
60641;SDS011;46837;52.446;-1.930;2023-03-23T00:00:09;7.90;;;1.38;;
60641;SDS011;46837;52.446;-1.930;2023-03-23T00:01:07;8.68;;;0.96;;
60641;SDS011;46837;52.446;-1.930;2023-03-23T00:02:07;4.80;;;0.78;;
60641;SDS011;46837;52.446;-1.930;2023-03-23T00:03:07;9.76;;;1.82;;
60641;SDS011;46837;52.446;-1.930;2023-03-23T00:04:07;9.70;;;1.68;;
60641;SDS011;46837;52.446;-1.930;2023-03-23T00:05:07;11.96;;;1.10;;
60641;SDS011;46837;52.446;-1.930;2023-03-23T00:06:07;6.58;;;0.92;;
60641;SDS011;46837;52.446;-1.930;2023-03-23T00:07:07;8.72;;;1.16;;
60641;SDS011;46837;52.446;-1.930;2023-03-23T00:08:07;8.18;;;1.56;;
60641;SDS011;46837;52.446;-1.930;2023-03-23T00:09:07;9.78;;;1.14;;
60641;SDS011;46837;52.446;-1.930;2023-03-23T00:10:07;9.26;;;1.40;;
60641;SDS011;46837;52.446;-1.930;2023-03-23T00:11:08;8.08;;;1.32;;
60641;SDS011;46837;52.446;-1.930;2023-03-23T00:12:07;6.32;;;0.86;;
60641;SDS011;46837;52.446;-1.930;2023-03-23T00:13:07;8.52;;;1.08;;
60641;SDS011;46837;52.446;-1.930;2023-03-23T00:14:07;4.70;;;0.94;;
60641;SDS011;46837;52.446;-1.930;2023-03-23T00:15:07;5.82;;;1.08;;
60641;SDS011;46837;52.446;-1.930;2023-03-23T00:16:07;8.60;;;1.24;;
60641;SDS011;46837;52.446;-1.930;2023-03-23T00:17:07;15.24;;;2.10;;
60641;SDS011;46837;52.446;-1.930;2023-03-23T00:18:07;7.54;;;1.18;;
60641;SDS011;46837;52.446;-1.930;2023-03-23T00:19:08;9.92;;;1.90;;
60641;SDS011;46837;52.446;-1.930;2023-03-23T00:20:07;5.32;;;1.06;;
60641;SDS011;46837;52.446;-1.930;2023-03-23T00:21:08;5.80;;;0.78;;
60641;SDS011;46837;52.446;-1.930;2023-03-23T00:22:07;7.72;;;1.14;;
60641;SDS011;46837;52.446;-1.930;2023-03-23T00:23:07;7.42;;;1.18;;
60641;SDS011;46837;52.446;-1.930;2023-03-23T00:24:11;11.94;;;1.64;;
60641;SDS011;46837;52.446;-1.930;2023-03-23T00:25:07;4.04;;;0.88;;
60641;SDS011;46837;52.446;-1.930;2023-03-23T00:26:07;4.74;;;0.76;;
60641;SDS011;46837;52.446;-1.930;2023-03-23T00:27:07;6.74;;;1.22;;
60641;SDS011;46837;52.446;-1.930;2023-03-23T00:28:07;8.38;;;2.00;;
60641;SDS011;46837;52.446;-1.930;2023-03-23T00:29:08;6.28;;;1.02;;
60641;SDS011;46837;52.446;-1.930;2023-03-23T00:30:07;9.26;;;1.96;;
60641;SDS011;46837;52.446;-1.930;2023-03-23T00:31:09;9.58;;;1.18;;
60641;SDS011;46837;52.446;-1.930;2023-03-23T00:32:07;9.30;;;1.80;;
60641;SDS011;46837;52.446;-1.930;2023-03-23T00:33:07;5.86;;;1.16;;
60641;SDS011;46837;52.446;-1.930;2023-03-23T00:34:07;6.40;;;1.34;;
60641;SDS011;46837;52.446;-1.930;2023-03-23T00:35:07;10.76;;;0.88;;
60641;SDS011;46837;52.446;-1.930;2023-03-23T00:36:08;7.88;;;1.76;;
60641;SDS011;46837;52.446;-1.930;2023-03-23T00:37:07;9.78;;;1.50;;
60641;SDS011;46837;52.446;-1.930;2023-03-23T00:38:07;9.48;;;1.28;;
60641;SDS011;46837;52.446;-1.930;2023-03-23T00:39:07;8.58;;;1.18;;
60641;SDS011;46837;52.446;-1.930;2023-03-23T00:40:10;5.04;;;1.98;;
60641;SDS011;46837;52.446;-1.930;2023-03-23T00:41:07;4.34;;;1.12;;
60641;SDS011;46837;52.446;-1.930;2023-03-23T00:42:07;7.10;;;0.90;;
60641;SDS011;46837;52.446;-1.930;2023-03-23T00:43:07;11.10;;;1.46;;
60641;SDS011;46837;52.446;-1.930;2023-03-23T00:44:07;11.98;;;1.48;;
60641;SDS011;46837;52.446;-1.930;2023-03-23T00:45:11;5.56;;;1.82;;
60641;SDS011;46837;52.446;-1.930;2023-03-23T00:46:10;7.32;;;1.78;;
60641;SDS011;46837;52.446;-1.930;2023-03-23T00:47:07;6.70;;;1.16;;
60641;SDS011;46837;52.446;-1.930;2023-03-23T00:48:07;9.66;;;1.04;;
60641;SDS011;46837;52.446;-1.930;2023-03-23T00:49:07;7.98;;;1.28;;
60641;SDS011;46837;52.446;-1.930;2023-03-23T00:50:07;7.40;;;0.94;;
60641;SDS011;46837;52.446;-1.930;2023-03-23T00:51:07;10.42;;;1.50;;
60641;SDS011;46837;52.446;-1.930;2023-03-23T00:52:07;3.86;;;0.94;;
60641;SDS011;46837;52.446;-1.930;2023-03-23T00:53:07;6.66;;;1.96;;
60641;SDS011;46837;52.446;-1.930;2023-03-23T00:54:07;12.32;;;1.22;;
60641;SDS011;46837;52.446;-1.930;2023-03-23T00:55:07;7.80;;;1.52;;
60641;SDS011;46837;52.446;-1.930;2023-03-23T00:56:07;6.64;;;1.76;;
60641;SDS011;46837;52.446;-1.930;2023-03-23T00:57:07;4.16;;;0.96;;
60641;SDS011;46837;52.446;-1.930;2023-03-23T00:58:07;4.12;;;1.12;;
60641;SDS011;46837;52.446;-1.930;2023-03-23T00:59:07;8.62;;;1.78;;
60641;SDS011;46837;52.446;-1.930;2023-03-23T01:00:10;11.26;;;1.12;;
60641;SDS011;46837;52.446;-1.930;2023-03-23T01:01:07;7.64;;;2.72;;
60641;SDS011;46837;52.446;-1.930;2023-03-23T01:02:07;5.24;;;2.26;;
60641;SDS011;46837;52.446;-1.930;2023-03-23T01:03:07;5.92;;;1.02;;
60641;SDS011;46837;52.446;-1.930;2023-03-23T01:04:07;7.20;;;0.54;;
60641;SDS011;46837;52.446;-1.930;2023-03-23T01:05:07;5.48;;;1.02;;
60641;SDS011;46837;52.446;-1.930;2023-03-23T01:06:08;7.90;;;1.30;;
60641;SDS011;46837;52.446;-1.930;2023-03-23T01:07:07;8.74;;;2.34;;
60641;SDS011;46837;52.446;-1.930;2023-03-23T01:08:07;4.90;;;1.82;;
60641;SDS011;46837;52.446;-1.930;2023-03-23T01:09:07;5.88;;;1.22;;
60641;SDS011;46837;52.446;-1.930;2023-03-23T01:10:07;5.24;;;1.14;;
60641;SDS011;46837;52.446;-1.930;2023-03-23T01:11:07;7.62;;;1.78;;
60641;SDS011;46837;52.446;-1.930;2023-03-23T01:12:07;4.76;;;0.88;;
60641;SDS011;46837;52.446;-1.930;2023-03-23T01:13:07;6.24;;;1.10;;
60641;SDS011;46837;52.446;-1.930;2023-03-23T01:14:07;4.66;;;1.10;;
60641;SDS011;46837;52.446;-1.930;2023-03-23T01:15:07;2.76;;;0.86;;
60641;SDS011;46837;52.446;-1.930;2023-03-23T01:16:07;10.98;;;1.38;;
60641;SDS011;46837;52.446;-1.930;2023-03-23T01:17:07;9.76;;;1.42;;
60641;SDS011;46837;52.446;-1.930;2023-03-23T01:18:07;7.52;;;1.26;;
60641;SDS011;46837;52.446;-1.930;2023-03-23T01:19:07;5.20;;;0.82;;
60641;SDS011;46837;52.446;-1.930;2023-03-23T01:20:07;2.92;;;1.08;;
60641;SDS011;46837;52.446;-1.930;2023-03-23T01:21:11;5.90;;;0.84;;
60641;SDS011;46837;52.446;-1.930;2023-03-23T01:22:07;8.66;;;2.02;;
60641;SDS011;46837;52.446;-1.930;2023-03-23T01:23:07;9.16;;;1.66;;
60641;SDS011;46837;52.446;-1.930;2023-03-23T01:24:07;6.94;;;1.56;;
60641;SDS011;46837;52.446;-1.930;2023-03-23T01:25:07;6.10;;;1.02;;
60641;SDS011;46837;52.446;-1.930;2023-03-23T01:26:13;15.74;;;1.92;;
60641;SDS011;46837;52.446;-1.930;2023-03-23T01:27:07;8.96;;;1.06;;
60641;SDS011;46837;52.446;-1.930;2023-03-23T01:28:07;8.14;;;1.92;;
60641;SDS011;46837;52.446;-1.930;2023-03-23T01:29:07;7.10;;;2.14;;
60641;SDS011;46837;52.446;-1.930;2023-03-23T01:30:07;4.24;;;1.18;;
60641;SDS011;46837;52.446;-1.930;2023-03-23T01:31:08;13.02;;;1.84;;
60641;SDS011;46837;52.446;-1.930;2023-03-23T01:32:07;12.86;;;2.06;;
60641;SDS011;46837;52.446;-1.930;2023-03-23T01:33:07;7.18;;;1.48;;
60641;SDS011;46837;52.446;-1.930;2023-03-23T01:34:07;8.22;;;1.70;;
60641;SDS011;46837;52.446;-1.930;2023-03-23T01:35:07;6.98;;;1.44;;
60641;SDS011;46837;52.446;-1.930;2023-03-23T01:36:08;12.80;;;1.48;;
60641;SDS011;46837;52.446;-1.930;2023-03-23T01:37:07;6.90;;;1.40;;
60641;SDS011;46837;52.446;-1.930;2023-03-23T01:38:07;12.22;;;2.32;;
60641;SDS011;46837;52.446;-1.930;2023-03-23T01:39:07;8.10;;;1.54;;
60641;SDS011;46837;52.446;-1.930;2023-03-23T01:40:07;9.34;;;1.22;;
60641;SDS011;46837;52.446;-1.930;2023-03-23T01:41:07;8.98;;;1.84;;
60641;SDS011;46837;52.446;-1.930;2023-03-23T01:42:08;9.58;;;1.72;;
60641;SDS011;46837;52.446;-1.930;2023-03-23T01:43:10;10.46;;;1.78;;
60641;SDS011;46837;52.446;-1.930;2023-03-23T01:44:08;7.04;;;1.52;;
60641;SDS011;46837;52.446;-1.930;2023-03-23T01:46:07;12.12;;;1.82;;
60641;SDS011;46837;52.446;-1.930;2023-03-23T01:47:07;10.32;;;2.04;;
60641;SDS011;46837;52.446;-1.930;2023-03-23T01:49:49;6.10;;;1.36;;
60641;SDS011;46837;52.446;-1.930;2023-03-23T01:50:07;9.20;;;2.20;;
60641;SDS011;46837;52.446;-1.930;2023-03-23T01:51:12;8.22;;;2.14;;
60641;SDS011;46837;52.446;-1.930;2023-03-23T01:52:09;12.18;;;2.44;;
60641;SDS011;46837;52.446;-1.930;2023-03-23T01:53:09;7.44;;;1.74;;
60641;SDS011;46837;52.446;-1.930;2023-03-23T01:54:07;11.72;;;2.56;;
60641;SDS011;46837;52.446;-1.930;2023-03-23T01:55:07;12.10;;;3.08;;
60641;SDS011;46837;52.446;-1.930;2023-03-23T01:56:07;12.78;;;2.18;;
60641;SDS011;46837;52.446;-1.930;2023-03-23T01:57:07;9.72;;;1.80;;
60641;SDS011;46837;52.446;-1.930;2023-03-23T01:58:07;12.12;;;1.82;;
60641;SDS011;46837;52.446;-1.930;2023-03-23T01:59:07;14.62;;;1.60;;
60641;SDS011;46837;52.446;-1.930;2023-03-23T02:00:09;9.44;;;1.54;;
60641;SDS011;46837;52.446;-1.930;2023-03-23T02:01:08;7.42;;;1.36;;
60641;SDS011;46837;52.446;-1.930;2023-03-23T02:02:07;12.08;;;2.26;;
60641;SDS011;46837;52.446;-1.930;2023-03-23T02:03:07;9.94;;;2.06;;
60641;SDS011;46837;52.446;-1.930;2023-03-23T02:04:07;12.28;;;1.66;;
60641;SDS011;46837;52.446;-1.930;2023-03-23T02:05:08;6.20;;;1.62;;
60641;SDS011;46837;52.446;-1.930;2023-03-23T02:06:07;13.04;;;1.44;;
60641;SDS011;46837;52.446;-1.930;2023-03-23T02:07:07;16.98;;;2.70;;
60641;SDS011;46837;52.446;-1.930;2023-03-23T02:08:07;9.04;;;1.74;;
60641;SDS011;46837;52.446;-1.930;2023-03-23T02:09:09;6.74;;;1.32;;
60641;SDS011;46837;52.446;-1.930;2023-03-23T02:10:07;10.90;;;2.04;;
60641;SDS011;46837;52.446;-1.930;2023-03-23T02:12:07;6.28;;;1.52;;
60641;SDS011;46837;52.446;-1.930;2023-03-23T02:13:07;13.64;;;2.34;;
60641;SDS011;46837;52.446;-1.930;2023-03-23T02:14:07;9.04;;;1.76;;
60641;SDS011;46837;52.446;-1.930;2023-03-23T02:15:07;8.12;;;1.72;;
60641;SDS011;46837;52.446;-1.930;2023-03-23T02:16:13;9.16;;;1.84;;
60641;SDS011;46837;52.446;-1.930;2023-03-23T02:17:08;17.44;;;2.16;;
60641;SDS011;46837;52.446;-1.930;2023-03-23T02:18:08;10.06;;;1.26;;
60641;SDS011;46837;52.446;-1.930;2023-03-23T02:23:11;7.40;;;1.64;;
60641;SDS011;46837;52.446;-1.930;2023-03-23T02:35:08;9.10;;;1.82;;
60641;SDS011;46837;52.446;-1.930;2023-03-23T02:38:13;10.60;;;1.84;;
60641;SDS011;46837;52.446;-1.930;2023-03-23T02:39:12;14.84;;;2.80;;
60641;SDS011;46837;52.446;-1.930;2023-03-23T02:41:07;8.74;;;1.68;;
60641;SDS011;46837;52.446;-1.930;2023-03-23T02:42:08;8.96;;;3.08;;
60641;SDS011;46837;52.446;-1.930;2023-03-23T02:43:08;10.08;;;2.12;;
60641;SDS011;46837;52.446;-1.930;2023-03-23T02:44:07;16.76;;;1.76;;
60641;SDS011;46837;52.446;-1.930;2023-03-23T02:45:08;17.64;;;2.40;;
60641;SDS011;46837;52.446;-1.930;2023-03-23T02:46:07;18.24;;;2.12;;
60641;SDS011;46837;52.446;-1.930;2023-03-23T02:47:07;16.28;;;2.02;;
60641;SDS011;46837;52.446;-1.930;2023-03-23T02:48:07;8.86;;;1.44;;
60641;SDS011;46837;52.446;-1.930;2023-03-23T02:49:07;12.00;;;1.56;;
60641;SDS011;46837;52.446;-1.930;2023-03-23T02:50:11;10.84;;;1.52;;
60641;SDS011;46837;52.446;-1.930;2023-03-23T02:51:07;9.74;;;1.38;;
60641;SDS011;46837;52.446;-1.930;2023-03-23T02:52:10;12.26;;;1.98;;
60641;SDS011;46837;52.446;-1.930;2023-03-23T02:53:07;11.30;;;2.32;;
60641;SDS011;46837;52.446;-1.930;2023-03-23T02:54:07;13.40;;;2.14;;
60641;SDS011;46837;52.446;-1.930;2023-03-23T02:55:07;13.90;;;1.98;;
60641;SDS011;46837;52.446;-1.930;2023-03-23T02:56:07;18.08;;;1.88;;
60641;SDS011;46837;52.446;-1.930;2023-03-23T02:57:07;13.72;;;2.40;;
60641;SDS011;46837;52.446;-1.930;2023-03-23T02:58:10;14.68;;;2.42;;
60641;SDS011;46837;52.446;-1.930;2023-03-23T02:59:07;10.00;;;1.74;;
60641;SDS011;46837;52.446;-1.930;2023-03-23T03:00:14;16.18;;;4.18;;
60641;SDS011;46837;52.446;-1.930;2023-03-23T03:01:13;12.90;;;1.98;;
60641;SDS011;46837;52.446;-1.930;2023-03-23T03:02:09;20.92;;;2.70;;
60641;SDS011;46837;52.446;-1.930;2023-03-23T03:03:09;16.34;;;4.88;;
60641;SDS011;46837;52.446;-1.930;2023-03-23T03:04:11;11.62;;;2.12;;
60641;SDS011;46837;52.446;-1.930;2023-03-23T03:06:12;11.88;;;2.52;;
60641;SDS011;46837;52.446;-1.930;2023-03-23T03:08:12;17.58;;;2.32;;
60641;SDS011;46837;52.446;-1.930;2023-03-23T03:09:09;18.64;;;3.68;;
60641;SDS011;46837;52.446;-1.930;2023-03-23T03:10:10;12.46;;;2.62;;
60641;SDS011;46837;52.446;-1.930;2023-03-23T03:11:08;18.58;;;2.72;;
60641;SDS011;46837;52.446;-1.930;2023-03-23T03:14:08;24.50;;;2.86;;
60641;SDS011;46837;52.446;-1.930;2023-03-23T03:16:14;13.60;;;2.54;;
60641;SDS011;46837;52.446;-1.930;2023-03-23T03:17:10;18.00;;;2.36;;
60641;SDS011;46837;52.446;-1.930;2023-03-23T03:19:11;17.50;;;1.94;;
60641;SDS011;46837;52.446;-1.930;2023-03-23T03:20:11;14.94;;;2.40;;
60641;SDS011;46837;52.446;-1.930;2023-03-23T03:21:07;19.32;;;3.14;;
60641;SDS011;46837;52.446;-1.930;2023-03-23T03:22:07;22.90;;;4.40;;
60641;SDS011;46837;52.446;-1.930;2023-03-23T03:23:08;14.64;;;2.16;;
60641;SDS011;46837;52.446;-1.930;2023-03-23T03:24:07;20.02;;;4.04;;
60641;SDS011;46837;52.446;-1.930;2023-03-23T03:25:07;26.82;;;2.82;;
60641;SDS011;46837;52.446;-1.930;2023-03-23T03:26:07;12.36;;;1.72;;
60641;SDS011;46837;52.446;-1.930;2023-03-23T03:27:10;22.90;;;4.08;;
60641;SDS011;46837;52.446;-1.930;2023-03-23T03:28:07;22.98;;;4.10;;
60641;SDS011;46837;52.446;-1.930;2023-03-23T03:29:07;14.20;;;2.84;;
60641;SDS011;46837;52.446;-1.930;2023-03-23T03:30:08;24.08;;;2.46;;
60641;SDS011;46837;52.446;-1.930;2023-03-23T03:31:07;27.26;;;5.00;;
60641;SDS011;46837;52.446;-1.930;2023-03-23T03:32:08;16.46;;;2.26;;
60641;SDS011;46837;52.446;-1.930;2023-03-23T03:33:07;29.64;;;2.98;;
60641;SDS011;46837;52.446;-1.930;2023-03-23T03:34:07;10.96;;;2.22;;
60641;SDS011;46837;52.446;-1.930;2023-03-23T03:35:07;14.66;;;2.72;;
60641;SDS011;46837;52.446;-1.930;2023-03-23T03:36:13;17.84;;;3.54;;
60641;SDS011;46837;52.446;-1.930;2023-03-23T03:37:07;26.38;;;3.62;;
60641;SDS011;46837;52.446;-1.930;2023-03-23T03:38:07;25.52;;;3.26;;
60641;SDS011;46837;52.446;-1.930;2023-03-23T03:39:08;23.74;;;3.84;;
60641;SDS011;46837;52.446;-1.930;2023-03-23T03:40:13;19.18;;;3.12;;
60641;SDS011;46837;52.446;-1.930;2023-03-23T03:41:07;19.02;;;2.80;;
60641;SDS011;46837;52.446;-1.930;2023-03-23T03:42:07;21.16;;;3.44;;
60641;SDS011;46837;52.446;-1.930;2023-03-23T03:43:07;14.04;;;2.18;;
60641;SDS011;46837;52.446;-1.930;2023-03-23T03:44:07;19.68;;;2.90;;
60641;SDS011;46837;52.446;-1.930;2023-03-23T03:45:07;18.60;;;2.92;;
60641;SDS011;46837;52.446;-1.930;2023-03-23T03:46:07;29.40;;;4.18;;
60641;SDS011;46837;52.446;-1.930;2023-03-23T03:47:07;19.08;;;3.52;;
60641;SDS011;46837;52.446;-1.930;2023-03-23T03:48:07;14.90;;;2.68;;
60641;SDS011;46837;52.446;-1.930;2023-03-23T03:49:08;21.86;;;3.98;;
60641;SDS011;46837;52.446;-1.930;2023-03-23T03:50:07;27.34;;;3.36;;
60641;SDS011;46837;52.446;-1.930;2023-03-23T03:51:07;24.12;;;3.12;;
60641;SDS011;46837;52.446;-1.930;2023-03-23T03:52:07;23.48;;;3.32;;
60641;SDS011;46837;52.446;-1.930;2023-03-23T03:53:07;22.28;;;2.82;;
60641;SDS011;46837;52.446;-1.930;2023-03-23T03:54:07;14.18;;;2.56;;
60641;SDS011;46837;52.446;-1.930;2023-03-23T03:55:07;16.52;;;2.80;;
60641;SDS011;46837;52.446;-1.930;2023-03-23T03:56:07;22.46;;;2.96;;
60641;SDS011;46837;52.446;-1.930;2023-03-23T03:57:07;22.58;;;2.98;;
60641;SDS011;46837;52.446;-1.930;2023-03-23T03:58:07;29.70;;;2.92;;
60641;SDS011;46837;52.446;-1.930;2023-03-23T03:59:07;22.66;;;2.98;;
60641;SDS011;46837;52.446;-1.930;2023-03-23T04:00:11;21.06;;;3.52;;
60641;SDS011;46837;52.446;-1.930;2023-03-23T04:01:07;21.08;;;3.66;;
60641;SDS011;46837;52.446;-1.930;2023-03-23T04:02:07;28.94;;;5.42;;
60641;SDS011;46837;52.446;-1.930;2023-03-23T04:03:07;21.34;;;3.18;;
60641;SDS011;46837;52.446;-1.930;2023-03-23T04:04:08;30.84;;;3.72;;
60641;SDS011;46837;52.446;-1.930;2023-03-23T04:05:07;23.04;;;3.92;;
60641;SDS011;46837;52.446;-1.930;2023-03-23T04:06:07;20.82;;;3.30;;
60641;SDS011;46837;52.446;-1.930;2023-03-23T04:07:07;24.40;;;3.24;;
60641;SDS011;46837;52.446;-1.930;2023-03-23T04:08:07;16.50;;;4.34;;
60641;SDS011;46837;52.446;-1.930;2023-03-23T04:09:09;19.82;;;3.18;;
60641;SDS011;46837;52.446;-1.930;2023-03-23T04:10:07;24.30;;;5.00;;
60641;SDS011;46837;52.446;-1.930;2023-03-23T04:11:07;26.66;;;2.84;;
60641;SDS011;46837;52.446;-1.930;2023-03-23T04:12:07;18.90;;;3.74;;
60641;SDS011;46837;52.446;-1.930;2023-03-23T04:13:07;24.76;;;3.64;;
60641;SDS011;46837;52.446;-1.930;2023-03-23T04:14:07;20.60;;;3.48;;
60641;SDS011;46837;52.446;-1.930;2023-03-23T04:15:07;27.74;;;3.58;;
60641;SDS011;46837;52.446;-1.930;2023-03-23T04:16:07;27.98;;;3.84;;
60641;SDS011;46837;52.446;-1.930;2023-03-23T04:17:07;28.20;;;4.92;;
60641;SDS011;46837;52.446;-1.930;2023-03-23T04:18:07;40.44;;;4.50;;
60641;SDS011;46837;52.446;-1.930;2023-03-23T04:19:07;22.74;;;3.06;;
60641;SDS011;46837;52.446;-1.930;2023-03-23T04:20:11;30.04;;;3.72;;
60641;SDS011;46837;52.446;-1.930;2023-03-23T04:21:08;17.30;;;4.14;;
60641;SDS011;46837;52.446;-1.930;2023-03-23T04:22:07;24.88;;;3.26;;
60641;SDS011;46837;52.446;-1.930;2023-03-23T04:23:07;25.88;;;4.24;;
60641;SDS011;46837;52.446;-1.930;2023-03-23T04:24:07;24.42;;;4.48;;
60641;SDS011;46837;52.446;-1.930;2023-03-23T04:25:07;28.60;;;5.48;;
60641;SDS011;46837;52.446;-1.930;2023-03-23T04:26:07;20.12;;;3.56;;
60641;SDS011;46837;52.446;-1.930;2023-03-23T04:27:07;32.00;;;4.52;;
60641;SDS011;46837;52.446;-1.930;2023-03-23T04:28:07;32.86;;;4.68;;
60641;SDS011;46837;52.446;-1.930;2023-03-23T04:29:07;35.12;;;4.76;;
60641;SDS011;46837;52.446;-1.930;2023-03-23T04:30:07;22.64;;;3.72;;
60641;SDS011;46837;52.446;-1.930;2023-03-23T04:31:07;26.30;;;2.90;;
60641;SDS011;46837;52.446;-1.930;2023-03-23T04:32:07;22.66;;;3.42;;
60641;SDS011;46837;52.446;-1.930;2023-03-23T04:33:07;32.46;;;3.98;;
60641;SDS011;46837;52.446;-1.930;2023-03-23T04:34:07;32.68;;;4.88;;
60641;SDS011;46837;52.446;-1.930;2023-03-23T04:35:07;29.52;;;4.52;;
60641;SDS011;46837;52.446;-1.930;2023-03-23T04:36:07;25.00;;;4.98;;
60641;SDS011;46837;52.446;-1.930;2023-03-23T04:37:07;20.92;;;3.82;;
60641;SDS011;46837;52.446;-1.930;2023-03-23T04:38:07;31.98;;;4.96;;
60641;SDS011;46837;52.446;-1.930;2023-03-23T04:39:10;23.68;;;3.24;;
60641;SDS011;46837;52.446;-1.930;2023-03-23T04:40:12;36.98;;;4.74;;
60641;SDS011;46837;52.446;-1.930;2023-03-23T04:41:07;34.26;;;4.22;;
60641;SDS011;46837;52.446;-1.930;2023-03-23T04:42:07;25.56;;;3.30;;
60641;SDS011;46837;52.446;-1.930;2023-03-23T04:43:07;26.26;;;3.90;;
60641;SDS011;46837;52.446;-1.930;2023-03-23T04:44:07;15.24;;;3.30;;
60641;SDS011;46837;52.446;-1.930;2023-03-23T04:45:07;16.90;;;4.32;;
60641;SDS011;46837;52.446;-1.930;2023-03-23T04:46:09;34.28;;;5.64;;
60641;SDS011;46837;52.446;-1.930;2023-03-23T04:47:10;29.16;;;3.58;;
60641;SDS011;46837;52.446;-1.930;2023-03-23T04:48:07;22.24;;;3.68;;
60641;SDS011;46837;52.446;-1.930;2023-03-23T04:49:07;21.10;;;3.92;;
60641;SDS011;46837;52.446;-1.930;2023-03-23T04:50:07;29.62;;;4.92;;
60641;SDS011;46837;52.446;-1.930;2023-03-23T04:51:07;26.64;;;4.06;;
60641;SDS011;46837;52.446;-1.930;2023-03-23T04:52:07;25.58;;;4.46;;
60641;SDS011;46837;52.446;-1.930;2023-03-23T04:53:07;27.62;;;3.10;;
60641;SDS011;46837;52.446;-1.930;2023-03-23T04:54:07;26.28;;;3.62;;
60641;SDS011;46837;52.446;-1.930;2023-03-23T04:55:07;27.70;;;4.10;;
60641;SDS011;46837;52.446;-1.930;2023-03-23T04:56:07;31.76;;;3.72;;
60641;SDS011;46837;52.446;-1.930;2023-03-23T04:57:07;29.70;;;3.88;;
60641;SDS011;46837;52.446;-1.930;2023-03-23T04:58:07;27.30;;;3.62;;
60641;SDS011;46837;52.446;-1.930;2023-03-23T04:59:07;25.78;;;4.54;;
60641;SDS011;46837;52.446;-1.930;2023-03-23T05:00:09;24.56;;;4.40;;
60641;SDS011;46837;52.446;-1.930;2023-03-23T05:01:07;22.90;;;4.14;;
60641;SDS011;46837;52.446;-1.930;2023-03-23T05:02:07;28.52;;;4.04;;
60641;SDS011;46837;52.446;-1.930;2023-03-23T05:03:08;39.34;;;3.82;;
60641;SDS011;46837;52.446;-1.930;2023-03-23T05:04:07;30.88;;;3.94;;
60641;SDS011;46837;52.446;-1.930;2023-03-23T05:05:07;28.56;;;3.64;;
60641;SDS011;46837;52.446;-1.930;2023-03-23T05:06:07;25.42;;;2.96;;
60641;SDS011;46837;52.446;-1.930;2023-03-23T05:07:07;32.74;;;4.16;;
60641;SDS011;46837;52.446;-1.930;2023-03-23T05:08:07;24.84;;;4.88;;
60641;SDS011;46837;52.446;-1.930;2023-03-23T05:09:07;32.70;;;3.46;;
60641;SDS011;46837;52.446;-1.930;2023-03-23T05:10:08;31.52;;;6.00;;
60641;SDS011;46837;52.446;-1.930;2023-03-23T05:11:07;29.86;;;4.64;;
60641;SDS011;46837;52.446;-1.930;2023-03-23T05:12:07;31.74;;;4.26;;
60641;SDS011;46837;52.446;-1.930;2023-03-23T05:13:07;44.90;;;3.90;;
60641;SDS011;46837;52.446;-1.930;2023-03-23T05:14:07;19.60;;;4.86;;
60641;SDS011;46837;52.446;-1.930;2023-03-23T05:15:07;41.86;;;4.06;;
60641;SDS011;46837;52.446;-1.930;2023-03-23T05:16:07;27.18;;;3.86;;
60641;SDS011;46837;52.446;-1.930;2023-03-23T05:17:07;30.70;;;4.18;;
60641;SDS011;46837;52.446;-1.930;2023-03-23T05:18:07;35.24;;;4.46;;
60641;SDS011;46837;52.446;-1.930;2023-03-23T05:19:07;29.62;;;4.18;;
60641;SDS011;46837;52.446;-1.930;2023-03-23T05:20:09;33.60;;;5.94;;
60641;SDS011;46837;52.446;-1.930;2023-03-23T05:21:07;42.20;;;4.56;;
60641;SDS011;46837;52.446;-1.930;2023-03-23T05:22:07;36.32;;;4.72;;
60641;SDS011;46837;52.446;-1.930;2023-03-23T05:23:07;39.44;;;5.16;;
60641;SDS011;46837;52.446;-1.930;2023-03-23T05:24:07;18.52;;;2.64;;
60641;SDS011;46837;52.446;-1.930;2023-03-23T05:25:07;30.76;;;4.72;;
60641;SDS011;46837;52.446;-1.930;2023-03-23T05:26:07;25.84;;;4.56;;
60641;SDS011;46837;52.446;-1.930;2023-03-23T05:27:07;21.72;;;4.02;;
60641;SDS011;46837;52.446;-1.930;2023-03-23T05:28:07;37.44;;;4.60;;
60641;SDS011;46837;52.446;-1.930;2023-03-23T05:29:07;26.46;;;3.74;;
60641;SDS011;46837;52.446;-1.930;2023-03-23T05:30:07;24.86;;;3.70;;
60641;SDS011;46837;52.446;-1.930;2023-03-23T05:31:07;35.80;;;4.94;;
60641;SDS011;46837;52.446;-1.930;2023-03-23T05:32:07;32.00;;;5.74;;
60641;SDS011;46837;52.446;-1.930;2023-03-23T05:33:07;33.62;;;4.80;;
60641;SDS011;46837;52.446;-1.930;2023-03-23T05:34:07;30.72;;;4.36;;
60641;SDS011;46837;52.446;-1.930;2023-03-23T05:35:07;16.58;;;3.38;;
60641;SDS011;46837;52.446;-1.930;2023-03-23T05:36:07;21.68;;;3.70;;
60641;SDS011;46837;52.446;-1.930;2023-03-23T05:37:07;29.88;;;3.14;;
60641;SDS011;46837;52.446;-1.930;2023-03-23T05:38:07;38.00;;;5.10;;
60641;SDS011;46837;52.446;-1.930;2023-03-23T05:39:07;25.78;;;3.68;;
60641;SDS011;46837;52.446;-1.930;2023-03-23T05:40:07;28.20;;;3.10;;
60641;SDS011;46837;52.446;-1.930;2023-03-23T05:41:07;17.30;;;2.62;;
60641;SDS011;46837;52.446;-1.930;2023-03-23T05:42:07;17.32;;;3.46;;
60641;SDS011;46837;52.446;-1.930;2023-03-23T05:43:07;28.54;;;4.38;;
60641;SDS011;46837;52.446;-1.930;2023-03-23T05:44:07;35.66;;;4.88;;
60641;SDS011;46837;52.446;-1.930;2023-03-23T05:45:07;13.12;;;3.10;;
60641;SDS011;46837;52.446;-1.930;2023-03-23T05:46:07;30.08;;;4.30;;
60641;SDS011;46837;52.446;-1.930;2023-03-23T05:47:07;27.20;;;3.78;;
60641;SDS011;46837;52.446;-1.930;2023-03-23T05:48:07;23.04;;;5.16;;
60641;SDS011;46837;52.446;-1.930;2023-03-23T05:49:07;28.16;;;4.54;;
60641;SDS011;46837;52.446;-1.930;2023-03-23T05:50:07;24.78;;;3.82;;
60641;SDS011;46837;52.446;-1.930;2023-03-23T05:51:07;21.86;;;3.26;;
60641;SDS011;46837;52.446;-1.930;2023-03-23T05:52:07;33.22;;;4.24;;
60641;SDS011;46837;52.446;-1.930;2023-03-23T05:53:07;19.20;;;3.12;;
60641;SDS011;46837;52.446;-1.930;2023-03-23T05:54:07;16.86;;;2.78;;
60641;SDS011;46837;52.446;-1.930;2023-03-23T05:55:07;22.96;;;2.76;;
60641;SDS011;46837;52.446;-1.930;2023-03-23T05:56:07;26.12;;;3.34;;
60641;SDS011;46837;52.446;-1.930;2023-03-23T05:57:07;27.60;;;3.84;;
60641;SDS011;46837;52.446;-1.930;2023-03-23T05:58:07;25.24;;;3.38;;
60641;SDS011;46837;52.446;-1.930;2023-03-23T05:59:07;22.60;;;3.28;;
60641;SDS011;46837;52.446;-1.930;2023-03-23T06:00:11;22.38;;;3.62;;
60641;SDS011;46837;52.446;-1.930;2023-03-23T06:01:07;31.34;;;5.54;;
60641;SDS011;46837;52.446;-1.930;2023-03-23T06:02:07;17.50;;;2.90;;
60641;SDS011;46837;52.446;-1.930;2023-03-23T06:03:07;26.04;;;4.10;;
60641;SDS011;46837;52.446;-1.930;2023-03-23T06:04:07;21.12;;;3.50;;
60641;SDS011;46837;52.446;-1.930;2023-03-23T06:05:07;19.58;;;3.34;;
60641;SDS011;46837;52.446;-1.930;2023-03-23T06:06:09;29.56;;;3.72;;
60641;SDS011;46837;52.446;-1.930;2023-03-23T06:07:07;28.28;;;4.42;;
60641;SDS011;46837;52.446;-1.930;2023-03-23T06:08:07;22.24;;;3.70;;
60641;SDS011;46837;52.446;-1.930;2023-03-23T06:09:07;19.62;;;3.82;;
60641;SDS011;46837;52.446;-1.930;2023-03-23T06:10:07;13.36;;;3.20;;
60641;SDS011;46837;52.446;-1.930;2023-03-23T06:11:07;25.26;;;3.00;;
60641;SDS011;46837;52.446;-1.930;2023-03-23T06:12:07;23.84;;;3.36;;
60641;SDS011;46837;52.446;-1.930;2023-03-23T06:13:07;18.98;;;3.18;;
60641;SDS011;46837;52.446;-1.930;2023-03-23T06:14:07;26.42;;;3.18;;
60641;SDS011;46837;52.446;-1.930;2023-03-23T06:15:07;25.08;;;3.26;;
60641;SDS011;46837;52.446;-1.930;2023-03-23T06:16:07;19.08;;;3.42;;
60641;SDS011;46837;52.446;-1.930;2023-03-23T06:17:07;24.94;;;2.74;;
60641;SDS011;46837;52.446;-1.930;2023-03-23T06:18:07;26.24;;;3.90;;
60641;SDS011;46837;52.446;-1.930;2023-03-23T06:19:07;22.94;;;3.50;;